sensor_id;sensor_type;location;lat;lon;timestamp;P1;durP1;ratioP1;P2;durP2;ratioP2
18200;SDS011;9226;47.858;9.594;2024-02-14T00:02:15;6.37;;;3.13;;
18200;SDS011;9226;47.858;9.594;2024-02-14T00:04:40;8.60;;;3.00;;
18200;SDS011;9226;47.858;9.594;2024-02-14T00:07:06;7.47;;;3.10;;
18200;SDS011;9226;47.858;9.594;2024-02-14T00:09:31;5.00;;;2.70;;
18200;SDS011;9226;47.858;9.594;2024-02-14T00:11:56;5.60;;;2.87;;
18200;SDS011;9226;47.858;9.594;2024-02-14T00:14:22;6.97;;;3.53;;
18200;SDS011;9226;47.858;9.594;2024-02-14T00:16:47;11.13;;;3.17;;
18200;SDS011;9226;47.858;9.594;2024-02-14T00:19:12;10.67;;;4.10;;
18200;SDS011;9226;47.858;9.594;2024-02-14T00:21:38;6.33;;;2.90;;
18200;SDS011;9226;47.858;9.594;2024-02-14T00:24:04;8.50;;;3.47;;
18200;SDS011;9226;47.858;9.594;2024-02-14T00:26:30;7.90;;;3.53;;
18200;SDS011;9226;47.858;9.594;2024-02-14T00:28:56;11.43;;;3.93;;
18200;SDS011;9226;47.858;9.594;2024-02-14T00:31:21;9.40;;;3.70;;
18200;SDS011;9226;47.858;9.594;2024-02-14T00:33:47;9.87;;;3.37;;
18200;SDS011;9226;47.858;9.594;2024-02-14T00:36:12;8.10;;;3.43;;
18200;SDS011;9226;47.858;9.594;2024-02-14T00:38:37;6.07;;;3.10;;
18200;SDS011;9226;47.858;9.594;2024-02-14T00:41:03;7.13;;;3.07;;
18200;SDS011;9226;47.858;9.594;2024-02-14T00:43:28;7.20;;;2.90;;
18200;SDS011;9226;47.858;9.594;2024-02-14T00:45:54;6.50;;;2.83;;
18200;SDS011;9226;47.858;9.594;2024-02-14T00:48:21;6.63;;;3.50;;
18200;SDS011;9226;47.858;9.594;2024-02-14T00:50:47;12.93;;;4.03;;
18200;SDS011;9226;47.858;9.594;2024-02-14T00:53:12;9.53;;;4.00;;
18200;SDS011;9226;47.858;9.594;2024-02-14T00:55:38;8.87;;;3.83;;
18200;SDS011;9226;47.858;9.594;2024-02-14T00:58:04;11.30;;;5.40;;
18200;SDS011;9226;47.858;9.594;2024-02-14T01:00:30;14.03;;;5.17;;
18200;SDS011;9226;47.858;9.594;2024-02-14T01:02:57;13.10;;;5.23;;
18200;SDS011;9226;47.858;9.594;2024-02-14T01:05:22;14.20;;;4.93;;
18200;SDS011;9226;47.858;9.594;2024-02-14T01:07:48;12.93;;;5.10;;
18200;SDS011;9226;47.858;9.594;2024-02-14T01:10:13;13.00;;;4.87;;
18200;SDS011;9226;47.858;9.594;2024-02-14T01:12:39;8.50;;;4.13;;
18200;SDS011;9226;47.858;9.594;2024-02-14T01:15:05;10.33;;;3.93;;
18200;SDS011;9226;47.858;9.594;2024-02-14T01:17:31;7.83;;;3.43;;
18200;SDS011;9226;47.858;9.594;2024-02-14T01:19:56;6.90;;;3.10;;
18200;SDS011;9226;47.858;9.594;2024-02-14T01:22:23;9.73;;;3.27;;
18200;SDS011;9226;47.858;9.594;2024-02-14T01:24:48;9.10;;;3.70;;
18200;SDS011;9226;47.858;9.594;2024-02-14T01:27:13;8.97;;;3.47;;
18200;SDS011;9226;47.858;9.594;2024-02-14T01:29:39;5.47;;;2.90;;
18200;SDS011;9226;47.858;9.594;2024-02-14T01:32:04;7.93;;;3.30;;
18200;SDS011;9226;47.858;9.594;2024-02-14T01:34:31;10.23;;;3.10;;
18200;SDS011;9226;47.858;9.594;2024-02-14T01:36:57;8.33;;;3.40;;
18200;SDS011;9226;47.858;9.594;2024-02-14T01:39:22;5.50;;;3.07;;
18200;SDS011;9226;47.858;9.594;2024-02-14T01:41:48;6.60;;;2.97;;
18200;SDS011;9226;47.858;9.594;2024-02-14T01:44:17;6.47;;;3.10;;
18200;SDS011;9226;47.858;9.594;2024-02-14T01:46:43;4.93;;;2.97;;
18200;SDS011;9226;47.858;9.594;2024-02-14T01:49:09;7.97;;;2.77;;
18200;SDS011;9226;47.858;9.594;2024-02-14T01:51:37;5.37;;;2.70;;
18200;SDS011;9226;47.858;9.594;2024-02-14T01:54:03;6.13;;;3.00;;
18200;SDS011;9226;47.858;9.594;2024-02-14T01:56:30;7.60;;;3.10;;
18200;SDS011;9226;47.858;9.594;2024-02-14T01:58:56;6.17;;;3.17;;
18200;SDS011;9226;47.858;9.594;2024-02-14T02:01:22;7.33;;;3.40;;
18200;SDS011;9226;47.858;9.594;2024-02-14T02:03:49;6.93;;;3.00;;
18200;SDS011;9226;47.858;9.594;2024-02-14T02:06:14;6.60;;;3.33;;
18200;SDS011;9226;47.858;9.594;2024-02-14T02:08:44;6.90;;;3.40;;
18200;SDS011;9226;47.858;9.594;2024-02-14T02:11:10;6.57;;;2.83;;
18200;SDS011;9226;47.858;9.594;2024-02-14T02:13:35;7.57;;;3.40;;
18200;SDS011;9226;47.858;9.594;2024-02-14T02:16:03;6.83;;;3.17;;
18200;SDS011;9226;47.858;9.594;2024-02-14T02:18:30;7.30;;;3.23;;
18200;SDS011;9226;47.858;9.594;2024-02-14T02:20:56;6.83;;;3.03;;
18200;SDS011;9226;47.858;9.594;2024-02-14T02:23:22;8.40;;;3.10;;
18200;SDS011;9226;47.858;9.594;2024-02-14T02:25:47;8.47;;;3.57;;
18200;SDS011;9226;47.858;9.594;2024-02-14T02:28:13;9.33;;;3.57;;
18200;SDS011;9226;47.858;9.594;2024-02-14T02:30:39;7.73;;;3.67;;
18200;SDS011;9226;47.858;9.594;2024-02-14T02:33:05;9.10;;;3.27;;
18200;SDS011;9226;47.858;9.594;2024-02-14T02:35:32;7.77;;;3.77;;
18200;SDS011;9226;47.858;9.594;2024-02-14T02:37:57;7.40;;;3.70;;
18200;SDS011;9226;47.858;9.594;2024-02-14T02:40:23;5.67;;;3.30;;
18200;SDS011;9226;47.858;9.594;2024-02-14T02:42:49;8.23;;;3.47;;
18200;SDS011;9226;47.858;9.594;2024-02-14T02:45:18;9.03;;;3.60;;
18200;SDS011;9226;47.858;9.594;2024-02-14T02:47:43;14.77;;;4.13;;
18200;SDS011;9226;47.858;9.594;2024-02-14T02:50:09;8.40;;;3.90;;
18200;SDS011;9226;47.858;9.594;2024-02-14T02:52:34;8.33;;;3.37;;
18200;SDS011;9226;47.858;9.594;2024-02-14T02:55:00;7.40;;;3.67;;
18200;SDS011;9226;47.858;9.594;2024-02-14T02:57:26;7.93;;;3.50;;
18200;SDS011;9226;47.858;9.594;2024-02-14T02:59:52;5.67;;;2.93;;
18200;SDS011;9226;47.858;9.594;2024-02-14T03:02:19;10.77;;;3.37;;
18200;SDS011;9226;47.858;9.594;2024-02-14T03:04:45;6.30;;;3.10;;
18200;SDS011;9226;47.858;9.594;2024-02-14T03:07:11;5.90;;;3.10;;
18200;SDS011;9226;47.858;9.594;2024-02-14T03:09:37;11.83;;;3.60;;
18200;SDS011;9226;47.858;9.594;2024-02-14T03:12:03;6.83;;;3.13;;
18200;SDS011;9226;47.858;9.594;2024-02-14T03:14:29;8.03;;;3.40;;
18200;SDS011;9226;47.858;9.594;2024-02-14T03:16:58;5.33;;;2.93;;
18200;SDS011;9226;47.858;9.594;2024-02-14T03:19:24;7.60;;;3.73;;
18200;SDS011;9226;47.858;9.594;2024-02-14T03:21:51;9.83;;;3.40;;
18200;SDS011;9226;47.858;9.594;2024-02-14T03:24:17;11.30;;;3.07;;
18200;SDS011;9226;47.858;9.594;2024-02-14T03:26:42;6.40;;;3.10;;
18200;SDS011;9226;47.858;9.594;2024-02-14T03:29:08;9.40;;;3.33;;
18200;SDS011;9226;47.858;9.594;2024-02-14T03:31:33;8.10;;;3.03;;
18200;SDS011;9226;47.858;9.594;2024-02-14T03:33:59;7.03;;;3.30;;
18200;SDS011;9226;47.858;9.594;2024-02-14T03:36:24;10.17;;;3.33;;
18200;SDS011;9226;47.858;9.594;2024-02-14T03:38:53;5.07;;;3.17;;
18200;SDS011;9226;47.858;9.594;2024-02-14T03:41:18;7.27;;;3.10;;
18200;SDS011;9226;47.858;9.594;2024-02-14T03:43:44;5.30;;;3.30;;
18200;SDS011;9226;47.858;9.594;2024-02-14T03:46:09;5.30;;;3.00;;
18200;SDS011;9226;47.858;9.594;2024-02-14T03:48:34;6.20;;;3.23;;
18200;SDS011;9226;47.858;9.594;2024-02-14T03:51:00;4.70;;;3.17;;
18200;SDS011;9226;47.858;9.594;2024-02-14T03:53:26;7.93;;;3.13;;
18200;SDS011;9226;47.858;9.594;2024-02-14T03:55:51;8.27;;;3.77;;
18200;SDS011;9226;47.858;9.594;2024-02-14T03:58:18;8.17;;;3.77;;
18200;SDS011;9226;47.858;9.594;2024-02-14T04:00:47;8.93;;;3.50;;
18200;SDS011;9226;47.858;9.594;2024-02-14T04:03:15;9.03;;;3.70;;
18200;SDS011;9226;47.858;9.594;2024-02-14T04:05:41;7.97;;;3.03;;
18200;SDS011;9226;47.858;9.594;2024-02-14T04:08:06;7.87;;;3.50;;
18200;SDS011;9226;47.858;9.594;2024-02-14T04:10:34;11.83;;;3.53;;
18200;SDS011;9226;47.858;9.594;2024-02-14T04:13:00;7.73;;;3.70;;
18200;SDS011;9226;47.858;9.594;2024-02-14T04:15:26;8.77;;;3.10;;
18200;SDS011;9226;47.858;9.594;2024-02-14T04:17:51;9.23;;;3.10;;
18200;SDS011;9226;47.858;9.594;2024-02-14T04:20:16;6.13;;;2.80;;
18200;SDS011;9226;47.858;9.594;2024-02-14T04:22:42;5.73;;;2.60;;
18200;SDS011;9226;47.858;9.594;2024-02-14T04:25:08;3.73;;;2.43;;
18200;SDS011;9226;47.858;9.594;2024-02-14T04:27:34;6.67;;;2.93;;
18200;SDS011;9226;47.858;9.594;2024-02-14T04:30:00;14.53;;;2.50;;
18200;SDS011;9226;47.858;9.594;2024-02-14T04:32:26;5.23;;;2.83;;
18200;SDS011;9226;47.858;9.594;2024-02-14T04:34:51;8.27;;;2.43;;
18200;SDS011;9226;47.858;9.594;2024-02-14T04:37:17;4.73;;;2.50;;
18200;SDS011;9226;47.858;9.594;2024-02-14T04:39:44;7.07;;;3.03;;
18200;SDS011;9226;47.858;9.594;2024-02-14T04:42:09;6.63;;;2.83;;
18200;SDS011;9226;47.858;9.594;2024-02-14T04:44:34;4.87;;;2.70;;
18200;SDS011;9226;47.858;9.594;2024-02-14T04:47:00;4.70;;;2.50;;
18200;SDS011;9226;47.858;9.594;2024-02-14T04:49:26;5.13;;;2.33;;
18200;SDS011;9226;47.858;9.594;2024-02-14T04:51:54;5.43;;;2.70;;
18200;SDS011;9226;47.858;9.594;2024-02-14T04:54:19;6.00;;;2.80;;
18200;SDS011;9226;47.858;9.594;2024-02-14T04:56:45;6.13;;;3.00;;
18200;SDS011;9226;47.858;9.594;2024-02-14T04:59:10;4.13;;;2.00;;
18200;SDS011;9226;47.858;9.594;2024-02-14T05:01:36;4.53;;;2.30;;
18200;SDS011;9226;47.858;9.594;2024-02-14T05:04:02;5.27;;;2.53;;
18200;SDS011;9226;47.858;9.594;2024-02-14T05:06:29;5.90;;;2.40;;
18200;SDS011;9226;47.858;9.594;2024-02-14T05:08:54;4.03;;;2.30;;
18200;SDS011;9226;47.858;9.594;2024-02-14T05:11:19;4.77;;;2.37;;
18200;SDS011;9226;47.858;9.594;2024-02-14T05:13:45;6.57;;;2.40;;
18200;SDS011;9226;47.858;9.594;2024-02-14T05:16:11;4.07;;;2.10;;
18200;SDS011;9226;47.858;9.594;2024-02-14T05:18:37;9.53;;;2.90;;
18200;SDS011;9226;47.858;9.594;2024-02-14T05:21:06;6.13;;;2.10;;
18200;SDS011;9226;47.858;9.594;2024-02-14T05:23:33;3.87;;;2.10;;
18200;SDS011;9226;47.858;9.594;2024-02-14T05:25:59;4.67;;;2.33;;
18200;SDS011;9226;47.858;9.594;2024-02-14T05:28:24;5.23;;;2.20;;
18200;SDS011;9226;47.858;9.594;2024-02-14T05:30:51;4.03;;;1.80;;
18200;SDS011;9226;47.858;9.594;2024-02-14T05:33:16;6.83;;;2.53;;
18200;SDS011;9226;47.858;9.594;2024-02-14T05:35:43;7.03;;;2.07;;
18200;SDS011;9226;47.858;9.594;2024-02-14T05:38:08;5.13;;;2.17;;
18200;SDS011;9226;47.858;9.594;2024-02-14T05:40:34;5.07;;;2.30;;
18200;SDS011;9226;47.858;9.594;2024-02-14T05:43:02;5.40;;;2.40;;
18200;SDS011;9226;47.858;9.594;2024-02-14T05:45:28;3.30;;;2.10;;
18200;SDS011;9226;47.858;9.594;2024-02-14T05:47:54;8.40;;;2.90;;
18200;SDS011;9226;47.858;9.594;2024-02-14T05:50:19;5.73;;;2.00;;
18200;SDS011;9226;47.858;9.594;2024-02-14T05:52:44;6.73;;;3.20;;
18200;SDS011;9226;47.858;9.594;2024-02-14T05:55:09;5.13;;;2.50;;
18200;SDS011;9226;47.858;9.594;2024-02-14T05:57:35;5.20;;;2.63;;
18200;SDS011;9226;47.858;9.594;2024-02-14T06:00:00;6.13;;;2.70;;
18200;SDS011;9226;47.858;9.594;2024-02-14T06:02:25;7.73;;;3.90;;
18200;SDS011;9226;47.858;9.594;2024-02-14T06:04:51;5.00;;;2.70;;
18200;SDS011;9226;47.858;9.594;2024-02-14T06:07:16;9.80;;;3.43;;
18200;SDS011;9226;47.858;9.594;2024-02-14T06:09:41;7.17;;;3.30;;
18200;SDS011;9226;47.858;9.594;2024-02-14T06:12:07;6.07;;;2.90;;
18200;SDS011;9226;47.858;9.594;2024-02-14T06:14:32;6.10;;;2.50;;
18200;SDS011;9226;47.858;9.594;2024-02-14T06:16:59;7.53;;;2.87;;
18200;SDS011;9226;47.858;9.594;2024-02-14T06:19:25;4.93;;;3.00;;
18200;SDS011;9226;47.858;9.594;2024-02-14T06:21:51;8.20;;;3.23;;
18200;SDS011;9226;47.858;9.594;2024-02-14T06:24:16;5.83;;;3.10;;
18200;SDS011;9226;47.858;9.594;2024-02-14T06:26:44;6.07;;;2.60;;
18200;SDS011;9226;47.858;9.594;2024-02-14T06:29:09;6.17;;;2.83;;
18200;SDS011;9226;47.858;9.594;2024-02-14T06:31:34;6.10;;;2.83;;
18200;SDS011;9226;47.858;9.594;2024-02-14T06:34:00;10.93;;;2.93;;
18200;SDS011;9226;47.858;9.594;2024-02-14T06:36:25;5.47;;;2.70;;
18200;SDS011;9226;47.858;9.594;2024-02-14T06:38:50;7.23;;;2.73;;
18200;SDS011;9226;47.858;9.594;2024-02-14T06:41:16;5.63;;;2.70;;
18200;SDS011;9226;47.858;9.594;2024-02-14T06:43:41;6.43;;;2.50;;
18200;SDS011;9226;47.858;9.594;2024-02-14T06:46:06;7.37;;;2.67;;
18200;SDS011;9226;47.858;9.594;2024-02-14T06:48:31;5.03;;;2.33;;
18200;SDS011;9226;47.858;9.594;2024-02-14T06:50:57;6.90;;;2.93;;
18200;SDS011;9226;47.858;9.594;2024-02-14T06:53:23;13.30;;;2.87;;
18200;SDS011;9226;47.858;9.594;2024-02-14T06:55:48;8.00;;;2.73;;
18200;SDS011;9226;47.858;9.594;2024-02-14T06:58:13;10.30;;;2.60;;
18200;SDS011;9226;47.858;9.594;2024-02-14T07:00:39;8.37;;;2.67;;
18200;SDS011;9226;47.858;9.594;2024-02-14T07:03:04;5.37;;;2.93;;
18200;SDS011;9226;47.858;9.594;2024-02-14T07:05:30;6.23;;;2.60;;
18200;SDS011;9226;47.858;9.594;2024-02-14T07:07:55;6.93;;;3.10;;
18200;SDS011;9226;47.858;9.594;2024-02-14T07:10:21;18.00;;;3.07;;
18200;SDS011;9226;47.858;9.594;2024-02-14T07:12:47;11.30;;;2.73;;
18200;SDS011;9226;47.858;9.594;2024-02-14T07:15:12;4.23;;;2.40;;
18200;SDS011;9226;47.858;9.594;2024-02-14T07:17:37;6.30;;;2.80;;
18200;SDS011;9226;47.858;9.594;2024-02-14T07:20:06;11.07;;;2.50;;
18200;SDS011;9226;47.858;9.594;2024-02-14T07:22:34;4.80;;;2.23;;
18200;SDS011;9226;47.858;9.594;2024-02-14T07:25:02;3.60;;;2.30;;
18200;SDS011;9226;47.858;9.594;2024-02-14T07:27:30;3.90;;;2.17;;
18200;SDS011;9226;47.858;9.594;2024-02-14T07:29:55;5.87;;;2.07;;
18200;SDS011;9226;47.858;9.594;2024-02-14T07:32:20;11.87;;;2.90;;
18200;SDS011;9226;47.858;9.594;2024-02-14T07:34:46;4.57;;;2.20;;
18200;SDS011;9226;47.858;9.594;2024-02-14T07:37:12;5.40;;;1.93;;
18200;SDS011;9226;47.858;9.594;2024-02-14T07:39:37;6.23;;;2.57;;
18200;SDS011;9226;47.858;9.594;2024-02-14T07:42:02;4.60;;;2.00;;
18200;SDS011;9226;47.858;9.594;2024-02-14T07:44:28;9.03;;;2.00;;
18200;SDS011;9226;47.858;9.594;2024-02-14T07:46:53;4.10;;;1.90;;
18200;SDS011;9226;47.858;9.594;2024-02-14T07:49:19;3.57;;;1.70;;
18200;SDS011;9226;47.858;9.594;2024-02-14T07:51:45;6.03;;;2.00;;
18200;SDS011;9226;47.858;9.594;2024-02-14T07:54:10;3.63;;;1.70;;
18200;SDS011;9226;47.858;9.594;2024-02-14T07:56:36;2.43;;;1.40;;
18200;SDS011;9226;47.858;9.594;2024-02-14T07:59:01;3.23;;;1.73;;
18200;SDS011;9226;47.858;9.594;2024-02-14T08:01:27;5.30;;;1.97;;
18200;SDS011;9226;47.858;9.594;2024-02-14T08:03:53;3.20;;;1.90;;
18200;SDS011;9226;47.858;9.594;2024-02-14T08:06:19;5.50;;;2.00;;
18200;SDS011;9226;47.858;9.594;2024-02-14T08:08:44;3.87;;;1.73;;
18200;SDS011;9226;47.858;9.594;2024-02-14T08:11:10;5.77;;;1.97;;
18200;SDS011;9226;47.858;9.594;2024-02-14T08:13:35;3.27;;;1.70;;
18200;SDS011;9226;47.858;9.594;2024-02-14T08:16:02;5.83;;;1.90;;
18200;SDS011;9226;47.858;9.594;2024-02-14T08:18:27;6.00;;;1.70;;
18200;SDS011;9226;47.858;9.594;2024-02-14T08:20:53;3.57;;;1.70;;
18200;SDS011;9226;47.858;9.594;2024-02-14T08:23:18;3.57;;;1.53;;
18200;SDS011;9226;47.858;9.594;2024-02-14T08:25:45;4.07;;;1.50;;
18200;SDS011;9226;47.858;9.594;2024-02-14T08:28:10;3.20;;;1.73;;
18200;SDS011;9226;47.858;9.594;2024-02-14T08:30:36;3.13;;;1.50;;
18200;SDS011;9226;47.858;9.594;2024-02-14T08:33:02;8.87;;;1.73;;
18200;SDS011;9226;47.858;9.594;2024-02-14T08:35:28;2.63;;;1.40;;
18200;SDS011;9226;47.858;9.594;2024-02-14T08:37:53;6.40;;;1.53;;
18200;SDS011;9226;47.858;9.594;2024-02-14T08:40:19;3.40;;;1.90;;
18200;SDS011;9226;47.858;9.594;2024-02-14T08:42:44;2.33;;;1.40;;
18200;SDS011;9226;47.858;9.594;2024-02-14T08:45:09;5.20;;;1.60;;
18200;SDS011;9226;47.858;9.594;2024-02-14T08:47:35;2.83;;;1.50;;
18200;SDS011;9226;47.858;9.594;2024-02-14T08:50:01;4.43;;;2.07;;
18200;SDS011;9226;47.858;9.594;2024-02-14T08:52:28;6.07;;;2.37;;
18200;SDS011;9226;47.858;9.594;2024-02-14T08:54:53;4.63;;;2.23;;
18200;SDS011;9226;47.858;9.594;2024-02-14T08:57:18;4.30;;;2.13;;
18200;SDS011;9226;47.858;9.594;2024-02-14T08:59:44;4.70;;;1.90;;
18200;SDS011;9226;47.858;9.594;2024-02-14T09:02:12;10.57;;;2.70;;
18200;SDS011;9226;47.858;9.594;2024-02-14T09:04:38;6.80;;;3.10;;
18200;SDS011;9226;47.858;9.594;2024-02-14T09:07:04;6.37;;;2.00;;
18200;SDS011;9226;47.858;9.594;2024-02-14T09:09:29;3.07;;;1.77;;
18200;SDS011;9226;47.858;9.594;2024-02-14T09:11:54;4.90;;;1.50;;
18200;SDS011;9226;47.858;9.594;2024-02-14T09:14:20;6.23;;;2.07;;
18200;SDS011;9226;47.858;9.594;2024-02-14T09:16:45;2.40;;;1.40;;
18200;SDS011;9226;47.858;9.594;2024-02-14T09:19:11;6.10;;;1.80;;
18200;SDS011;9226;47.858;9.594;2024-02-14T09:21:37;3.80;;;1.57;;
18200;SDS011;9226;47.858;9.594;2024-02-14T09:24:03;2.40;;;1.43;;
18200;SDS011;9226;47.858;9.594;2024-02-14T09:26:29;7.90;;;2.27;;
18200;SDS011;9226;47.858;9.594;2024-02-14T09:28:55;4.40;;;1.80;;
18200;SDS011;9226;47.858;9.594;2024-02-14T09:31:21;5.47;;;1.60;;
18200;SDS011;9226;47.858;9.594;2024-02-14T09:33:47;2.13;;;1.47;;
18200;SDS011;9226;47.858;9.594;2024-02-14T09:36:13;5.00;;;1.53;;
18200;SDS011;9226;47.858;9.594;2024-02-14T09:38:39;7.53;;;1.80;;
18200;SDS011;9226;47.858;9.594;2024-02-14T09:44:03;3.73;;;1.50;;
18200;SDS011;9226;47.858;9.594;2024-02-14T09:46:28;2.50;;;1.40;;
18200;SDS011;9226;47.858;9.594;2024-02-14T09:48:55;9.47;;;1.93;;
18200;SDS011;9226;47.858;9.594;2024-02-14T09:51:23;8.57;;;1.53;;
18200;SDS011;9226;47.858;9.594;2024-02-14T09:53:49;7.23;;;1.63;;
18200;SDS011;9226;47.858;9.594;2024-02-14T09:56:15;14.37;;;1.90;;
18200;SDS011;9226;47.858;9.594;2024-02-14T09:58:43;3.17;;;1.33;;
18200;SDS011;9226;47.858;9.594;2024-02-14T10:01:14;9.30;;;1.60;;
18200;SDS011;9226;47.858;9.594;2024-02-14T10:03:40;6.03;;;1.33;;
18200;SDS011;9226;47.858;9.594;2024-02-14T10:06:05;2.93;;;1.30;;
18200;SDS011;9226;47.858;9.594;2024-02-14T10:08:30;1.97;;;1.43;;
18200;SDS011;9226;47.858;9.594;2024-02-14T10:10:56;4.40;;;1.50;;
18200;SDS011;9226;47.858;9.594;2024-02-14T10:13:26;3.27;;;1.53;;
18200;SDS011;9226;47.858;9.594;2024-02-14T10:15:51;2.10;;;1.40;;
18200;SDS011;9226;47.858;9.594;2024-02-14T10:18:17;2.43;;;1.40;;
18200;SDS011;9226;47.858;9.594;2024-02-14T10:20:52;4.17;;;1.40;;
18200;SDS011;9226;47.858;9.594;2024-02-14T10:23:20;3.67;;;1.57;;
18200;SDS011;9226;47.858;9.594;2024-02-14T10:25:47;5.13;;;1.53;;
18200;SDS011;9226;47.858;9.594;2024-02-14T10:28:15;3.73;;;1.60;;
18200;SDS011;9226;47.858;9.594;2024-02-14T10:30:41;2.67;;;1.30;;
18200;SDS011;9226;47.858;9.594;2024-02-14T10:33:11;7.93;;;1.63;;
18200;SDS011;9226;47.858;9.594;2024-02-14T10:35:36;2.40;;;1.50;;
18200;SDS011;9226;47.858;9.594;2024-02-14T10:38:03;2.60;;;1.30;;
18200;SDS011;9226;47.858;9.594;2024-02-14T10:40:32;5.53;;;1.60;;
18200;SDS011;9226;47.858;9.594;2024-02-14T10:42:59;4.17;;;1.77;;
18200;SDS011;9226;47.858;9.594;2024-02-14T10:45:24;1.90;;;1.40;;
18200;SDS011;9226;47.858;9.594;2024-02-14T10:47:51;1.80;;;1.20;;
18200;SDS011;9226;47.858;9.594;2024-02-14T10:50:18;3.07;;;1.67;;
18200;SDS011;9226;47.858;9.594;2024-02-14T10:52:49;5.60;;;1.60;;
18200;SDS011;9226;47.858;9.594;2024-02-14T10:55:18;3.50;;;1.60;;
18200;SDS011;9226;47.858;9.594;2024-02-14T10:57:45;1.73;;;1.30;;
18200;SDS011;9226;47.858;9.594;2024-02-14T11:00:12;7.13;;;1.73;;
18200;SDS011;9226;47.858;9.594;2024-02-14T11:02:41;3.17;;;1.40;;
18200;SDS011;9226;47.858;9.594;2024-02-14T11:05:13;3.70;;;1.43;;
18200;SDS011;9226;47.858;9.594;2024-02-14T11:07:47;2.73;;;1.37;;
18200;SDS011;9226;47.858;9.594;2024-02-14T11:10:14;2.10;;;1.30;;
18200;SDS011;9226;47.858;9.594;2024-02-14T11:12:41;2.67;;;1.67;;
18200;SDS011;9226;47.858;9.594;2024-02-14T11:15:10;6.97;;;1.80;;
18200;SDS011;9226;47.858;9.594;2024-02-14T11:17:36;3.60;;;1.27;;
18200;SDS011;9226;47.858;9.594;2024-02-14T11:20:16;2.93;;;1.57;;
18200;SDS011;9226;47.858;9.594;2024-02-14T11:22:56;3.80;;;1.40;;
18200;SDS011;9226;47.858;9.594;2024-02-14T11:25:23;3.83;;;1.13;;
18200;SDS011;9226;47.858;9.594;2024-02-14T11:27:53;7.37;;;1.67;;
18200;SDS011;9226;47.858;9.594;2024-02-14T11:30:34;2.43;;;1.20;;
18200;SDS011;9226;47.858;9.594;2024-02-14T11:35:45;6.47;;;1.63;;
18200;SDS011;9226;47.858;9.594;2024-02-14T11:38:22;3.37;;;1.37;;
18200;SDS011;9226;47.858;9.594;2024-02-14T11:40:50;2.83;;;1.93;;
18200;SDS011;9226;47.858;9.594;2024-02-14T11:43:19;4.90;;;1.33;;
18200;SDS011;9226;47.858;9.594;2024-02-14T11:45:45;6.53;;;1.60;;
18200;SDS011;9226;47.858;9.594;2024-02-14T11:48:14;3.13;;;1.23;;
18200;SDS011;9226;47.858;9.594;2024-02-14T11:50:41;2.50;;;1.30;;
18200;SDS011;9226;47.858;9.594;2024-02-14T11:53:09;3.17;;;1.43;;
18200;SDS011;9226;47.858;9.594;2024-02-14T11:55:39;2.53;;;1.20;;
18200;SDS011;9226;47.858;9.594;2024-02-14T11:58:16;4.93;;;1.20;;
18200;SDS011;9226;47.858;9.594;2024-02-14T12:00:43;3.43;;;1.60;;
18200;SDS011;9226;47.858;9.594;2024-02-14T12:03:27;3.20;;;1.30;;
18200;SDS011;9226;47.858;9.594;2024-02-14T12:05:52;3.10;;;1.30;;
18200;SDS011;9226;47.858;9.594;2024-02-14T12:08:18;8.07;;;1.47;;
18200;SDS011;9226;47.858;9.594;2024-02-14T12:10:45;4.07;;;1.77;;
18200;SDS011;9226;47.858;9.594;2024-02-14T12:13:19;5.70;;;1.53;;
18200;SDS011;9226;47.858;9.594;2024-02-14T12:15:46;11.80;;;1.60;;
18200;SDS011;9226;47.858;9.594;2024-02-14T12:18:12;2.30;;;1.20;;
18200;SDS011;9226;47.858;9.594;2024-02-14T12:20:38;3.90;;;1.53;;
18200;SDS011;9226;47.858;9.594;2024-02-14T12:23:04;2.17;;;1.33;;
18200;SDS011;9226;47.858;9.594;2024-02-14T12:25:33;3.20;;;1.23;;
18200;SDS011;9226;47.858;9.594;2024-02-14T12:27:59;5.90;;;1.23;;
18200;SDS011;9226;47.858;9.594;2024-02-14T12:30:41;1.50;;;1.00;;
18200;SDS011;9226;47.858;9.594;2024-02-14T12:33:10;2.33;;;1.10;;
18200;SDS011;9226;47.858;9.594;2024-02-14T12:35:36;4.70;;;1.33;;
18200;SDS011;9226;47.858;9.594;2024-02-14T12:38:07;3.43;;;1.33;;
18200;SDS011;9226;47.858;9.594;2024-02-14T12:40:35;2.73;;;1.17;;
18200;SDS011;9226;47.858;9.594;2024-02-14T12:43:00;1.90;;;1.13;;
18200;SDS011;9226;47.858;9.594;2024-02-14T12:45:26;2.53;;;1.30;;
18200;SDS011;9226;47.858;9.594;2024-02-14T12:47:51;2.27;;;1.37;;
18200;SDS011;9226;47.858;9.594;2024-02-14T12:50:18;2.47;;;1.10;;
18200;SDS011;9226;47.858;9.594;2024-02-14T12:52:45;2.57;;;1.20;;
18200;SDS011;9226;47.858;9.594;2024-02-14T12:55:11;3.13;;;1.40;;
18200;SDS011;9226;47.858;9.594;2024-02-14T12:57:36;1.33;;;1.03;;
18200;SDS011;9226;47.858;9.594;2024-02-14T13:00:02;3.80;;;1.43;;
18200;SDS011;9226;47.858;9.594;2024-02-14T13:02:30;5.27;;;1.40;;
18200;SDS011;9226;47.858;9.594;2024-02-14T13:04:57;2.63;;;1.10;;
18200;SDS011;9226;47.858;9.594;2024-02-14T13:07:22;3.93;;;1.27;;
18200;SDS011;9226;47.858;9.594;2024-02-14T13:09:48;2.60;;;1.30;;
18200;SDS011;9226;47.858;9.594;2024-02-14T13:12:14;2.10;;;1.33;;
18200;SDS011;9226;47.858;9.594;2024-02-14T13:14:39;1.97;;;1.00;;
18200;SDS011;9226;47.858;9.594;2024-02-14T13:17:05;4.37;;;1.50;;
18200;SDS011;9226;47.858;9.594;2024-02-14T13:19:31;1.53;;;0.87;;
18200;SDS011;9226;47.858;9.594;2024-02-14T13:21:57;2.47;;;1.20;;
18200;SDS011;9226;47.858;9.594;2024-02-14T13:24:22;2.93;;;1.33;;
18200;SDS011;9226;47.858;9.594;2024-02-14T13:26:47;1.83;;;1.27;;
18200;SDS011;9226;47.858;9.594;2024-02-14T13:29:13;4.50;;;1.20;;
18200;SDS011;9226;47.858;9.594;2024-02-14T13:31:38;4.57;;;1.40;;
18200;SDS011;9226;47.858;9.594;2024-02-14T13:34:03;2.87;;;1.47;;
18200;SDS011;9226;47.858;9.594;2024-02-14T13:36:29;3.07;;;1.13;;
18200;SDS011;9226;47.858;9.594;2024-02-14T13:38:54;2.03;;;1.23;;
18200;SDS011;9226;47.858;9.594;2024-02-14T13:41:20;1.80;;;1.10;;
18200;SDS011;9226;47.858;9.594;2024-02-14T13:43:45;2.27;;;1.37;;
18200;SDS011;9226;47.858;9.594;2024-02-14T13:46:10;1.90;;;1.30;;
18200;SDS011;9226;47.858;9.594;2024-02-14T13:48:37;7.00;;;1.83;;
18200;SDS011;9226;47.858;9.594;2024-02-14T13:51:03;6.20;;;1.40;;
18200;SDS011;9226;47.858;9.594;2024-02-14T13:53:28;3.80;;;1.40;;
18200;SDS011;9226;47.858;9.594;2024-02-14T13:55:54;2.80;;;1.03;;
18200;SDS011;9226;47.858;9.594;2024-02-14T13:58:20;1.27;;;0.93;;
18200;SDS011;9226;47.858;9.594;2024-02-14T14:00:45;2.07;;;1.37;;
18200;SDS011;9226;47.858;9.594;2024-02-14T14:03:11;14.27;;;1.23;;
18200;SDS011;9226;47.858;9.594;2024-02-14T14:05:36;2.27;;;1.10;;
18200;SDS011;9226;47.858;9.594;2024-02-14T14:08:02;1.20;;;1.03;;
18200;SDS011;9226;47.858;9.594;2024-02-14T14:10:28;2.40;;;1.33;;
18200;SDS011;9226;47.858;9.594;2024-02-14T14:12:54;2.30;;;1.00;;
18200;SDS011;9226;47.858;9.594;2024-02-14T14:15:20;7.40;;;1.20;;
18200;SDS011;9226;47.858;9.594;2024-02-14T14:17:47;4.17;;;1.20;;
18200;SDS011;9226;47.858;9.594;2024-02-14T14:20:12;3.50;;;1.20;;
18200;SDS011;9226;47.858;9.594;2024-02-14T14:22:37;1.63;;;1.10;;
18200;SDS011;9226;47.858;9.594;2024-02-14T14:25:03;3.67;;;1.47;;
18200;SDS011;9226;47.858;9.594;2024-02-14T14:27:29;2.67;;;1.50;;
18200;SDS011;9226;47.858;9.594;2024-02-14T14:29:55;3.07;;;1.40;;
18200;SDS011;9226;47.858;9.594;2024-02-14T14:32:20;5.70;;;1.20;;
18200;SDS011;9226;47.858;9.594;2024-02-14T14:34:45;3.40;;;1.30;;
18200;SDS011;9226;47.858;9.594;2024-02-14T14:37:11;6.77;;;1.30;;
18200;SDS011;9226;47.858;9.594;2024-02-14T14:39:36;5.40;;;1.10;;
18200;SDS011;9226;47.858;9.594;2024-02-14T14:42:01;2.53;;;1.10;;
18200;SDS011;9226;47.858;9.594;2024-02-14T14:44:27;1.63;;;1.03;;
18200;SDS011;9226;47.858;9.594;2024-02-14T14:46:55;3.47;;;1.20;;
18200;SDS011;9226;47.858;9.594;2024-02-14T14:49:21;4.77;;;1.40;;
18200;SDS011;9226;47.858;9.594;2024-02-14T14:51:46;5.60;;;1.30;;
18200;SDS011;9226;47.858;9.594;2024-02-14T14:54:12;5.73;;;1.43;;
18200;SDS011;9226;47.858;9.594;2024-02-14T14:56:37;5.43;;;1.50;;
18200;SDS011;9226;47.858;9.594;2024-02-14T14:59:03;4.97;;;1.23;;
18200;SDS011;9226;47.858;9.594;2024-02-14T15:01:34;5.67;;;1.50;;